Lake Taupo — D5EZ7 — position and weather

sailwx.info

Track history (hours):
 
Tides and Currents Weather Stations Pressure Air Temp Water Temp Dewpoint Dewpoint Depression Visibility Wind Speed Wind Dir Waves Ship Positions

Lake Taupo

Last reported at 2018-Jan-04 09:39 UTC. Time now 2018-Jan-17 23:53 UTC.
Position N 34°21' E 139°58'.
Warning: this ship's position is 13 days out of date.

Length 182 m; draft 8.8 m.

Type: Cargo ship. MMSI: 636016205.

Date/timePositionNaut miles runAvg speedWind from/ knotsBaromVisibWave heightAir tempDewpointWater temp
2018-Jan-04 09:39N 34°21' E 139°58'316.1
2018-Jan-04 09:27N 34°24' E 139°57'716.3
2018-Jan-04 09:00N 34°31' E 139°53'915.8
2018-Jan-04 08:28N 34°39' E 139°50'816.5
2018-Jan-04 08:00N 34°46' E 139°46'715.2
2018-Jan-04 07:30N 34°53' E 139°43'714.9
2018-Jan-04 07:00N 35°00' E 139°43'816.2
2018-Jan-04 06:31N 35°08' E 139°45'612.4
2018-Jan-04 06:01N 35°15' E 139°46'713.0
2018-Jan-04 05:30N 35°20' E 139°42'713.2
2018-Jan-04 05:00N 35°27' E 139°41'1 1.1
2018-Jan-04 04:26N 35°27' E 139°41'0 0.0
2018-Jan-04 03:59N 35°27' E 139°41'0 0.0
2018-Jan-04 03:29N 35°27' E 139°41'0 0.0
2018-Jan-04 02:59N 35°27' E 139°41'0 0.0
2018-Jan-04 02:29N 35°27' E 139°41'0 0.0
2018-Jan-04 01:59N 35°27' E 139°41'0 0.0
2018-Jan-04 01:29N 35°27' E 139°41'0 0.0
2018-Jan-04 00:59N 35°27' E 139°41'0 0.0
2018-Jan-04 00:29N 35°27' E 139°41'0 0.0
2018-Jan-03 23:59N 35°27' E 139°41'0 0.0
2018-Jan-03 23:29N 35°27' E 139°41'0 0.0
2018-Jan-03 22:59N 35°27' E 139°41'0 0.0
2018-Jan-03 22:26N 35°27' E 139°41'0 0.0
2018-Jan-03 21:59N 35°27' E 139°41'2 4.2
2018-Jan-03 21:30N 35°26' E 139°43'510.0
2018-Jan-03 21:00N 35°21' E 139°43'612.9
2018-Jan-03 20:30N 35°15' E 139°47'611.6
2018-Jan-03 20:00N 35°09' E 139°47'510.0
2018-Jan-03 19:30N 35°05' E 139°44'612.9
2018-Jan-03 19:01N 34°59' E 139°42'815.3
2018-Jan-03 18:30N 34°52' E 139°38'815.5
2018-Jan-03 18:00N 34°45' E 139°34'815.2
2018-Jan-03 17:30N 34°39' E 139°28'815.8
2018-Jan-03 17:00N 34°36' E 139°19'816.2
2018-Jan-03 16:31N 34°34' E 139°10'816.6
2018-Jan-03 16:00N 34°31' E 139°00'917.1
2018-Jan-03 15:30N 34°29' E 138°50'816.0
2018-Jan-03 15:00N 34°27' E 138°41'815.2
2018-Jan-03 14:29N 34°26' E 138°31'815.2
2018-Jan-03 14:00N 34°26' E 138°22'715.1
2018-Jan-03 13:30N 34°26' E 138°13'815.8
2018-Jan-03 13:00N 34°26' E 138°04'815.8
2018-Jan-03 12:30N 34°26' E 137°54'815.5
2018-Jan-03 12:00N 34°26' E 137°45'815.0
2018-Jan-03 11:29N 34°26' E 137°35'1115.5
2018-Jan-03 10:48N 34°26' E 137°22'1814.4
2018-Jan-03 09:32N 34°32' E 137°02'1 7.9
2018-Jan-03 09:26N 34°33' E 137°01'612.7
2018-Jan-03 09:00N 34°36' E 136°56'816.4
2018-Jan-03 08:30N 34°41' E 136°49'918.0
2018-Jan-03 08:00N 34°50' E 136°46'816.0
2018-Jan-03 07:30N 34°58' E 136°48'510.0
2018-Jan-03 07:00N 35°02' E 136°50'0 0.4
2018-Jan-03 06:26N 35°03' E 136°50'0 0.0
2018-Jan-03 05:56N 35°03' E 136°50'0 0.0
2018-Jan-03 05:26N 35°03' E 136°50'0 0.0
2018-Jan-03 04:56N 35°03' E 136°50'0 0.0
2018-Jan-03 04:26N 35°03' E 136°50'0 0.0
2018-Jan-03 03:59N 35°03' E 136°50'0 0.0
2018-Jan-03 03:26N 35°03' E 136°50'0 0.0
2018-Jan-03 02:56N 35°03' E 136°50'0 0.0
2018-Jan-03 02:26N 35°03' E 136°50'0 0.0
2018-Jan-03 01:56N 35°03' E 136°50'0 0.0
2018-Jan-03 01:26N 35°03' E 136°50'0 0.0
2018-Jan-03 00:56N 35°03' E 136°50'0 0.0
2018-Jan-03 00:26N 35°03' E 136°50'0 0.0
2018-Jan-02 23:56N 35°03' E 136°50'0 0.0
2018-Jan-02 23:29N 35°03' E 136°50'0 0.4
2018-Jan-02 23:01N 35°02' E 136°50'4 7.6
2018-Jan-02 22:30N 34°59' E 136°49'611.7
2018-Jan-02 22:01N 34°53' E 136°47'816.7
2018-Jan-02 21:30N 34°45' E 136°49'917.8
2018-Jan-02 21:00N 34°38' E 136°56'714.8
2018-Jan-02 20:30N 34°33' E 137°02'612.0
2018-Jan-02 20:01N 34°27' E 137°05'3112.3
2018-Jan-02 17:27N 33°60' E 136°48'815.6
2018-Jan-02 16:57N 33°55' E 136°40'7613.3
2018-Jan-02 11:14N 33°27' E 135°15'1015.1
2018-Jan-02 10:35N 33°35' E 135°07'115.7
2018-Jan-02 10:29N 33°36' E 135°06'815.6
2018-Jan-02 10:00N 33°43' E 135°02'815.4
2018-Jan-02 09:30N 33°50' E 134°58'1515.1
2018-Jan-02 08:30N 34°05' E 134°58'815.2
2018-Jan-02 08:01N 34°12' E 134°58'713.1
2018-Jan-02 07:30N 34°19' E 134°59'917.4
2018-Jan-02 07:00N 34°26' E 135°06'918.2
2018-Jan-02 06:30N 34°31' E 135°15'714.5
2018-Jan-02 06:01N 34°33' E 135°23'1 1.9
2018-Jan-02 05:30N 34°32' E 135°24'0 0.0
2018-Jan-02 04:30N 34°32' E 135°24'0 0.0
2018-Jan-02 04:00N 34°32' E 135°24'0 0.0
2018-Jan-02 03:30N 34°32' E 135°24'0 0.0
2018-Jan-02 03:00N 34°32' E 135°24'0 0.0
2018-Jan-02 02:30N 34°32' E 135°24'0 0.0
2018-Jan-02 02:00N 34°32' E 135°24'0 0.0
2018-Jan-02 01:30N 34°32' E 135°24'0 0.0
2018-Jan-02 00:59N 34°32' E 135°24'0 0.0
2018-Jan-02 00:30N 34°32' E 135°24'0 0.0
2018-Jan-02 00:00N 34°32' E 135°24'0 0.0
2018-Jan-01 23:30N 34°32' E 135°24'0 0.0
2018-Jan-01 23:00N 34°32' E 135°24'0 0.0
2018-Jan-01 22:30N 34°32' E 135°24'0 0.0
2018-Jan-01 22:00N 34°32' E 135°24'0 0.0
2018-Jan-01 21:30N 34°32' E 135°24'0 0.0
2018-Jan-01 21:00N 34°32' E 135°24'0 0.0
2018-Jan-01 20:30N 34°32' E 135°24'0 0.0
2018-Jan-01 20:00N 34°32' E 135°24'0 0.0
2018-Jan-01 19:30N 34°32' E 135°24'0 0.0
2018-Jan-01 19:00N 34°32' E 135°24'0 0.0
2018-Jan-01 18:30N 34°32' E 135°24'0 0.0
2018-Jan-01 18:00N 34°32' E 135°24'0 0.0
2018-Jan-01 17:30N 34°32' E 135°24'0 0.0
2018-Jan-01 15:00N 34°32' E 135°24'0 0.0
2018-Jan-01 14:30N 34°32' E 135°24'0 0.0
2018-Jan-01 14:00N 34°32' E 135°24'0 0.0
2018-Jan-01 13:30N 34°32' E 135°24'0 0.0
2018-Jan-01 13:00N 34°32' E 135°24'0 0.0
2018-Jan-01 12:00N 34°32' E 135°24'0 0.0
2018-Jan-01 11:30N 34°32' E 135°24'0 0.0
2018-Jan-01 11:00N 34°32' E 135°24'0 0.0
2018-Jan-01 10:30N 34°32' E 135°24'0 0.0
2018-Jan-01 10:00N 34°32' E 135°24'0 0.0
2018-Jan-01 09:30N 34°32' E 135°24'0 0.0
2018-Jan-01 08:30N 34°32' E 135°24'0 0.0
2018-Jan-01 08:00N 34°32' E 135°24'0 0.0
2018-Jan-01 07:30N 34°32' E 135°24'0 0.0
2018-Jan-01 06:57N 34°32' E 135°24'0 0.0
2018-Jan-01 06:00N 34°32' E 135°24'0 0.0
2018-Jan-01 05:30N 34°32' E 135°24'0 0.0
2018-Jan-01 05:00N 34°32' E 135°24'0 0.0
2018-Jan-01 04:00N 34°32' E 135°24'0 0.0
2018-Jan-01 03:30N 34°32' E 135°24'0 0.0
2018-Jan-01 03:00N 34°32' E 135°24'0 0.0
2018-Jan-01 02:30N 34°32' E 135°24'0 0.0
2018-Jan-01 02:00N 34°32' E 135°24'0 0.0
2018-Jan-01 01:30N 34°32' E 135°24'7 7.0
2018-Jan-01 00:31N 34°31' E 135°16'4813.6
2017-Dec-31 21:01N 33°47' E 134°54'914.5
2017-Dec-31 20:23N 33°40' E 134°47'513.8
2017-Dec-31 20:00N 33°36' E 134°43'13310.1
2017-Dec-31 06:51N 33°09' E 132°06'412.6
2017-Dec-31 06:31N 33°13' E 132°03'713.0
2017-Dec-31 06:00N 33°18' E 131°59'612.9
2017-Dec-31 05:31N 33°24' E 131°55'713.4
2017-Dec-31 05:00N 33°30' E 131°52'713.6
2017-Dec-31 04:31N 33°36' E 131°48'713.6
2017-Dec-31 04:01N 33°42' E 131°45'612.4
2017-Dec-31 03:31N 33°46' E 131°39'713.7
2017-Dec-31 03:01N 33°48' E 131°31'713.7
2017-Dec-31 02:31N 33°49' E 131°23'713.6
2017-Dec-31 02:01N 33°51' E 131°15'713.1
2017-Dec-31 01:31N 33°54' E 131°08'611.0
2017-Dec-31 01:00N 33°57' E 131°02'4 8.2
2017-Dec-31 00:30N 33°57' E 130°57'4 8.5
2017-Dec-31 00:00N 33°55' E 130°53'611.1
2017-Dec-30 23:30N 34°01' E 130°51'612.6
2017-Dec-30 23:00N 34°05' E 130°46'714.9
2017-Dec-30 22:30N 34°11' E 130°41'815.2
2017-Dec-30 22:00N 34°18' E 130°38'815.3
2017-Dec-30 21:30N 34°26' E 130°35'815.3
2017-Dec-30 21:00N 34°33' E 130°31'  
2017-Dec-25 19:03N 31°19' E 121°41'0 1.4
2017-Dec-25 19:00N 31°20' E 121°41'2 4.4
2017-Dec-25 18:29N 31°19' E 121°44'510.1
2017-Dec-25 18:00N 31°17' E 121°49'  
Track history (hours):
 
Tides and Currents Weather Stations Pressure Air Temp Water Temp Dewpoint Dewpoint Depression Visibility Wind Speed Wind Dir Waves Ship Positions

Lake Taupo

Last reported at 2018-Jan-04 09:39 UTC. Time now 2018-Jan-17 23:53 UTC.
Position N 34°21' E 139°58'.
Warning: this ship's position is 13 days out of date.

Length 182 m; draft 8.8 m.

Type: Cargo ship. MMSI: 636016205.

Date/timePositionNaut miles runAvg speedWind from/ knotsBaromVisibWave heightAir tempDewpointWater temp
2018-Jan-04 09:39N 34°21' E 139°58'316.1
2018-Jan-04 09:27N 34°24' E 139°57'716.3
2018-Jan-04 09:00N 34°31' E 139°53'915.8
2018-Jan-04 08:28N 34°39' E 139°50'816.5
2018-Jan-04 08:00N 34°46' E 139°46'715.2
2018-Jan-04 07:30N 34°53' E 139°43'714.9
2018-Jan-04 07:00N 35°00' E 139°43'816.2
2018-Jan-04 06:31N 35°08' E 139°45'612.4
2018-Jan-04 06:01N 35°15' E 139°46'713.0
2018-Jan-04 05:30N 35°20' E 139°42'713.2
2018-Jan-04 05:00N 35°27' E 139°41'1 1.1
2018-Jan-04 04:26N 35°27' E 139°41'0 0.0
2018-Jan-04 03:59N 35°27' E 139°41'0 0.0
2018-Jan-04 03:29N 35°27' E 139°41'0 0.0
2018-Jan-04 02:59N 35°27' E 139°41'0 0.0
2018-Jan-04 02:29N 35°27' E 139°41'0 0.0
2018-Jan-04 01:59N 35°27' E 139°41'0 0.0
2018-Jan-04 01:29N 35°27' E 139°41'0 0.0
2018-Jan-04 00:59N 35°27' E 139°41'0 0.0
2018-Jan-04 00:29N 35°27' E 139°41'0 0.0
2018-Jan-03 23:59N 35°27' E 139°41'0 0.0
2018-Jan-03 23:29N 35°27' E 139°41'0 0.0
2018-Jan-03 22:59N 35°27' E 139°41'0 0.0
2018-Jan-03 22:26N 35°27' E 139°41'0 0.0
2018-Jan-03 21:59N 35°27' E 139°41'2 4.2
2018-Jan-03 21:30N 35°26' E 139°43'510.0
2018-Jan-03 21:00N 35°21' E 139°43'612.9
2018-Jan-03 20:30N 35°15' E 139°47'611.6
2018-Jan-03 20:00N 35°09' E 139°47'510.0
2018-Jan-03 19:30N 35°05' E 139°44'612.9
2018-Jan-03 19:01N 34°59' E 139°42'815.3
2018-Jan-03 18:30N 34°52' E 139°38'815.5
2018-Jan-03 18:00N 34°45' E 139°34'815.2
2018-Jan-03 17:30N 34°39' E 139°28'815.8
2018-Jan-03 17:00N 34°36' E 139°19'816.2
2018-Jan-03 16:31N 34°34' E 139°10'816.6
2018-Jan-03 16:00N 34°31' E 139°00'917.1
2018-Jan-03 15:30N 34°29' E 138°50'816.0
2018-Jan-03 15:00N 34°27' E 138°41'815.2
2018-Jan-03 14:29N 34°26' E 138°31'815.2
2018-Jan-03 14:00N 34°26' E 138°22'715.1
2018-Jan-03 13:30N 34°26' E 138°13'815.8
2018-Jan-03 13:00N 34°26' E 138°04'815.8
2018-Jan-03 12:30N 34°26' E 137°54'815.5
2018-Jan-03 12:00N 34°26' E 137°45'815.0
2018-Jan-03 11:29N 34°26' E 137°35'1115.5
2018-Jan-03 10:48N 34°26' E 137°22'1814.4
2018-Jan-03 09:32N 34°32' E 137°02'1 7.9
2018-Jan-03 09:26N 34°33' E 137°01'612.7
2018-Jan-03 09:00N 34°36' E 136°56'816.4
2018-Jan-03 08:30N 34°41' E 136°49'918.0
2018-Jan-03 08:00N 34°50' E 136°46'816.0
2018-Jan-03 07:30N 34°58' E 136°48'510.0
2018-Jan-03 07:00N 35°02' E 136°50'0 0.4
2018-Jan-03 06:26N 35°03' E 136°50'0 0.0
2018-Jan-03 05:56N 35°03' E 136°50'0 0.0
2018-Jan-03 05:26N 35°03' E 136°50'0 0.0
2018-Jan-03 04:56N 35°03' E 136°50'0 0.0
2018-Jan-03 04:26N 35°03' E 136°50'0 0.0
2018-Jan-03 03:59N 35°03' E 136°50'0 0.0
2018-Jan-03 03:26N 35°03' E 136°50'0 0.0
2018-Jan-03 02:56N 35°03' E 136°50'0 0.0
2018-Jan-03 02:26N 35°03' E 136°50'0 0.0
2018-Jan-03 01:56N 35°03' E 136°50'0 0.0
2018-Jan-03 01:26N 35°03' E 136°50'0 0.0
2018-Jan-03 00:56N 35°03' E 136°50'0 0.0
2018-Jan-03 00:26N 35°03' E 136°50'0 0.0
2018-Jan-02 23:56N 35°03' E 136°50'0 0.0
2018-Jan-02 23:29N 35°03' E 136°50'0 0.4
2018-Jan-02 23:01N 35°02' E 136°50'4 7.6
2018-Jan-02 22:30N 34°59' E 136°49'611.7
2018-Jan-02 22:01N 34°53' E 136°47'816.7
2018-Jan-02 21:30N 34°45' E 136°49'917.8
2018-Jan-02 21:00N 34°38' E 136°56'714.8
2018-Jan-02 20:30N 34°33' E 137°02'612.0
2018-Jan-02 20:01N 34°27' E 137°05'3112.3
2018-Jan-02 17:27N 33°60' E 136°48'815.6
2018-Jan-02 16:57N 33°55' E 136°40'7613.3
2018-Jan-02 11:14N 33°27' E 135°15'1015.1
2018-Jan-02 10:35N 33°35' E 135°07'115.7
2018-Jan-02 10:29N 33°36' E 135°06'815.6
2018-Jan-02 10:00N 33°43' E 135°02'815.4
2018-Jan-02 09:30N 33°50' E 134°58'1515.1
2018-Jan-02 08:30N 34°05' E 134°58'815.2
2018-Jan-02 08:01N 34°12' E 134°58'713.1
2018-Jan-02 07:30N 34°19' E 134°59'917.4
2018-Jan-02 07:00N 34°26' E 135°06'918.2
2018-Jan-02 06:30N 34°31' E 135°15'714.5
2018-Jan-02 06:01N 34°33' E 135°23'1 1.9
2018-Jan-02 05:30N 34°32' E 135°24'0 0.0
2018-Jan-02 04:30N 34°32' E 135°24'0 0.0
2018-Jan-02 04:00N 34°32' E 135°24'0 0.0
2018-Jan-02 03:30N 34°32' E 135°24'0 0.0
2018-Jan-02 03:00N 34°32' E 135°24'0 0.0
2018-Jan-02 02:30N 34°32' E 135°24'0 0.0
2018-Jan-02 02:00N 34°32' E 135°24'0 0.0
2018-Jan-02 01:30N 34°32' E 135°24'0 0.0
2018-Jan-02 00:59N 34°32' E 135°24'0 0.0
2018-Jan-02 00:30N 34°32' E 135°24'0 0.0
2018-Jan-02 00:00N 34°32' E 135°24'0 0.0
2018-Jan-01 23:30N 34°32' E 135°24'0 0.0
2018-Jan-01 23:00N 34°32' E 135°24'0 0.0
2018-Jan-01 22:30N 34°32' E 135°24'0 0.0
2018-Jan-01 22:00N 34°32' E 135°24'0 0.0
2018-Jan-01 21:30N 34°32' E 135°24'0 0.0
2018-Jan-01 21:00N 34°32' E 135°24'0 0.0
2018-Jan-01 20:30N 34°32' E 135°24'0 0.0
2018-Jan-01 20:00N 34°32' E 135°24'0 0.0
2018-Jan-01 19:30N 34°32' E 135°24'0 0.0
2018-Jan-01 19:00N 34°32' E 135°24'0 0.0
2018-Jan-01 18:30N 34°32' E 135°24'0 0.0
2018-Jan-01 18:00N 34°32' E 135°24'0 0.0
2018-Jan-01 17:30N 34°32' E 135°24'0 0.0
2018-Jan-01 15:00N 34°32' E 135°24'0 0.0
2018-Jan-01 14:30N 34°32' E 135°24'0 0.0
2018-Jan-01 14:00N 34°32' E 135°24'0 0.0
2018-Jan-01 13:30N 34°32' E 135°24'0 0.0
2018-Jan-01 13:00N 34°32' E 135°24'0 0.0
2018-Jan-01 12:00N 34°32' E 135°24'0 0.0
2018-Jan-01 11:30N 34°32' E 135°24'0 0.0
2018-Jan-01 11:00N 34°32' E 135°24'0 0.0
2018-Jan-01 10:30N 34°32' E 135°24'0 0.0
2018-Jan-01 10:00N 34°32' E 135°24'0 0.0
2018-Jan-01 09:30N 34°32' E 135°24'0 0.0
2018-Jan-01 08:30N 34°32' E 135°24'0 0.0
2018-Jan-01 08:00N 34°32' E 135°24'0 0.0
2018-Jan-01 07:30N 34°32' E 135°24'0 0.0
2018-Jan-01 06:57N 34°32' E 135°24'0 0.0
2018-Jan-01 06:00N 34°32' E 135°24'0 0.0
2018-Jan-01 05:30N 34°32' E 135°24'0 0.0
2018-Jan-01 05:00N 34°32' E 135°24'0 0.0
2018-Jan-01 04:00N 34°32' E 135°24'0 0.0
2018-Jan-01 03:30N 34°32' E 135°24'0 0.0
2018-Jan-01 03:00N 34°32' E 135°24'0 0.0
2018-Jan-01 02:30N 34°32' E 135°24'0 0.0
2018-Jan-01 02:00N 34°32' E 135°24'0 0.0
2018-Jan-01 01:30N 34°32' E 135°24'7 7.0
2018-Jan-01 00:31N 34°31' E 135°16'4813.6
2017-Dec-31 21:01N 33°47' E 134°54'914.5
2017-Dec-31 20:23N 33°40' E 134°47'513.8
2017-Dec-31 20:00N 33°36' E 134°43'13310.1
2017-Dec-31 06:51N 33°09' E 132°06'412.6
2017-Dec-31 06:31N 33°13' E 132°03'713.0
2017-Dec-31 06:00N 33°18' E 131°59'612.9
2017-Dec-31 05:31N 33°24' E 131°55'713.4
2017-Dec-31 05:00N 33°30' E 131°52'713.6
2017-Dec-31 04:31N 33°36' E 131°48'713.6
2017-Dec-31 04:01N 33°42' E 131°45'612.4
2017-Dec-31 03:31N 33°46' E 131°39'713.7
2017-Dec-31 03:01N 33°48' E 131°31'713.7
2017-Dec-31 02:31N 33°49' E 131°23'713.6
2017-Dec-31 02:01N 33°51' E 131°15'713.1
2017-Dec-31 01:31N 33°54' E 131°08'611.0
2017-Dec-31 01:00N 33°57' E 131°02'4 8.2
2017-Dec-31 00:30N 33°57' E 130°57'4 8.5
2017-Dec-31 00:00N 33°55' E 130°53'611.1
2017-Dec-30 23:30N 34°01' E 130°51'612.6
2017-Dec-30 23:00N 34°05' E 130°46'714.9
2017-Dec-30 22:30N 34°11' E 130°41'815.2
2017-Dec-30 22:00N 34°18' E 130°38'815.3
2017-Dec-30 21:30N 34°26' E 130°35'815.3
2017-Dec-30 21:00N 34°33' E 130°31'  
2017-Dec-25 19:03N 31°19' E 121°41'0 1.4
2017-Dec-25 19:00N 31°20' E 121°41'2 4.4
2017-Dec-25 18:29N 31°19' E 121°44'510.1
2017-Dec-25 18:00N 31°17' E 121°49'  

Dump ship's entire track history